createdAt,value
2023-03-22T00:01:05.901Z,9.88
2023-03-22T00:03:36.497Z,9.86
2023-03-22T00:06:26.092Z,9.87
2023-03-22T00:09:03.702Z,9.88
2023-03-22T00:12:07.386Z,9.88
2023-03-22T00:14:40.922Z,9.87
2023-03-22T00:19:25.895Z,9.84
2023-03-22T00:20:46.684Z,9.81
2023-03-22T00:23:21.391Z,9.76
2023-03-22T00:26:09.411Z,9.72
2023-03-22T00:28:44.597Z,9.69
2023-03-22T00:31:30.968Z,9.67
2023-03-22T00:34:15.791Z,9.63
2023-03-22T00:37:18.005Z,9.59
2023-03-22T00:40:13.892Z,9.57
2023-03-22T00:42:56.806Z,9.53
2023-03-22T00:45:51.547Z,9.50
2023-03-22T00:48:51.646Z,9.48
2023-03-22T00:52:05.874Z,9.47
2023-03-22T00:55:38.492Z,9.48
2023-03-22T00:58:29.452Z,9.47
2023-03-22T01:01:32.148Z,9.46
2023-03-22T01:04:01.142Z,9.42
2023-03-22T01:06:34.361Z,9.38
2023-03-22T01:09:06.650Z,9.34
2023-03-22T01:11:53.497Z,9.32
2023-03-22T01:14:55.912Z,9.31
2023-03-22T01:17:39.891Z,9.31
2023-03-22T01:20:10.221Z,9.30
2023-03-22T01:22:56.733Z,9.29
2023-03-22T01:25:37.686Z,9.31
2023-03-22T01:28:17.791Z,9.31
2023-03-22T01:31:00.306Z,9.31
2023-03-22T01:33:45.491Z,9.30
2023-03-22T01:36:38.917Z,9.29
2023-03-22T01:39:25.717Z,9.24
2023-03-22T01:42:28.411Z,9.21
2023-03-22T01:45:46.082Z,9.22
2023-03-22T01:49:18.105Z,9.19
2023-03-22T01:52:15.417Z,9.13
2023-03-22T01:54:56.267Z,9.10
2023-03-22T01:57:26.854Z,9.08
2023-03-22T02:00:53.033Z,9.06
2023-03-22T02:03:36.914Z,9.03
2023-03-22T02:06:07.509Z,9.01
2023-03-22T02:08:45.582Z,9.00
2023-03-22T02:11:37.653Z,8.99
2023-03-22T02:14:45.509Z,8.97
2023-03-22T02:18:12.725Z,8.94
2023-03-22T02:21:12.908Z,8.93
2023-03-22T02:25:15.919Z,8.95
2023-03-22T02:27:45.122Z,9.00
2023-03-22T02:31:18.742Z,9.03
2023-03-22T02:34:35.835Z,9.02
2023-03-22T02:41:35.669Z,9.07
2023-03-22T02:44:28.139Z,9.12
2023-03-22T02:47:51.583Z,9.18
2023-03-22T02:50:07.197Z,9.22
2023-03-22T02:52:46.568Z,9.25
2023-03-22T02:55:28.064Z,9.29
2023-03-22T02:58:09.469Z,9.29
2023-03-22T03:00:43.196Z,9.32
2023-03-22T03:03:29.866Z,9.32
2023-03-22T03:06:26.310Z,9.34
2023-03-22T03:09:04.097Z,9.36
2023-03-22T03:11:46.395Z,9.38
2023-03-22T03:15:00.312Z,9.37
2023-03-22T03:18:53.356Z,9.42
2023-03-22T03:20:54.008Z,9.46
2023-03-22T03:24:26.361Z,9.48
2023-03-22T03:27:10.210Z,9.50
2023-03-22T03:30:20.677Z,9.50
2023-03-22T03:36:44.670Z,9.53
2023-03-22T03:39:53.457Z,9.55
2023-03-22T03:43:10.732Z,9.57
2023-03-22T03:46:13.945Z,9.61
2023-03-22T03:49:26.625Z,9.59
2023-03-22T03:52:27.450Z,9.62
2023-03-22T03:55:24.153Z,9.61
2023-03-22T03:58:18.227Z,9.65
2023-03-22T04:00:55.409Z,9.67
2023-03-22T04:03:42.682Z,9.69
2023-03-22T04:06:35.071Z,9.71
2023-03-22T04:09:15.561Z,9.75
2023-03-22T04:12:04.528Z,9.74
2023-03-22T04:15:26.224Z,9.77
2023-03-22T04:17:47.319Z,9.79
2023-03-22T04:20:29.790Z,9.79
2023-03-22T04:26:01.681Z,9.79
2023-03-22T04:29:14.912Z,9.78
2023-03-22T04:32:01.764Z,9.79
2023-03-22T04:34:46.061Z,9.79
2023-03-22T04:37:44.606Z,9.77
2023-03-22T04:40:48.325Z,9.77
2023-03-22T04:43:37.319Z,9.78
2023-03-22T04:46:25.254Z,9.79
2023-03-22T04:49:04.369Z,9.79
2023-03-22T04:54:54.485Z,9.82
2023-03-22T05:00:41.723Z,9.80
2023-03-22T05:03:36.855Z,9.80
2023-03-22T05:06:35.775Z,9.79
2023-03-22T05:11:08.485Z,9.79
2023-03-22T05:13:04.412Z,9.77
2023-03-22T05:15:40.196Z,9.78
2023-03-22T05:18:40.466Z,9.78
2023-03-22T05:21:18.913Z,9.76
2023-03-22T05:24:43.652Z,9.74
2023-03-22T05:27:25.948Z,9.75
2023-03-22T05:32:28.566Z,9.75
2023-03-22T05:34:46.199Z,9.77
2023-03-22T05:37:43.090Z,9.79
2023-03-22T05:41:48.401Z,9.77
2023-03-22T05:44:20.455Z,9.77
2023-03-22T05:47:31.563Z,9.77
2023-03-22T05:50:09.396Z,9.79
2023-03-22T05:53:15.065Z,9.79
2023-03-22T05:58:46.423Z,9.85
2023-03-22T06:02:43.779Z,9.85
2023-03-22T06:05:34.607Z,9.85
2023-03-22T06:08:28.128Z,9.87
2023-03-22T06:10:59.933Z,9.90
2023-03-22T06:13:31.431Z,9.91
2023-03-22T06:16:34.915Z,9.95
2023-03-22T06:19:34.442Z,10.00
2023-03-22T06:22:23.674Z,10.03
2023-03-22T06:25:46.876Z,10.06
2023-03-22T06:28:11.772Z,10.08
2023-03-22T06:31:07.221Z,10.10
2023-03-22T06:34:03.375Z,10.11
2023-03-22T06:38:54.004Z,10.13
2023-03-22T06:40:44.501Z,10.19
2023-03-22T06:43:46.840Z,10.24
2023-03-22T06:46:25.168Z,10.26
2023-03-22T06:49:38.457Z,10.30
2023-03-22T06:52:39.476Z,10.36
2023-03-22T06:55:44.011Z,10.38
2023-03-22T06:59:09.086Z,10.44
2023-03-22T07:06:02.703Z,10.44
2023-03-22T07:09:41.747Z,10.47
2023-03-22T07:12:11.954Z,10.54
2023-03-22T07:15:25.035Z,10.56
2023-03-22T07:18:36.996Z,10.56
2023-03-22T07:22:14.669Z,10.59
2023-03-22T07:24:28.685Z,10.60
2023-03-22T07:31:55.420Z,10.64
2023-03-22T07:35:16.069Z,10.67
2023-03-22T07:38:14.816Z,10.72
2023-03-22T07:44:43.368Z,10.77
2023-03-22T07:49:17.555Z,10.83
2023-03-22T07:54:47.756Z,10.94
2023-03-22T07:57:18.626Z,11.01
2023-03-22T07:59:57.489Z,11.04
2023-03-22T08:02:32.682Z,11.07
2023-03-22T08:05:06.145Z,11.07
2023-03-22T08:07:55.593Z,11.10
2023-03-22T08:10:26.006Z,11.10
2023-03-22T08:13:06.390Z,11.14
2023-03-22T08:15:41.812Z,11.19
2023-03-22T08:18:34.949Z,11.29
2023-03-22T08:21:06.738Z,11.39
2023-03-22T08:23:41.885Z,11.46
2023-03-22T08:26:11.803Z,11.54
2023-03-22T08:28:48.036Z,11.57
2023-03-22T08:31:19.374Z,11.62
2023-03-22T08:33:53.792Z,11.68
2023-03-22T08:36:24.251Z,11.72
2023-03-22T08:39:04.060Z,11.79
2023-03-22T08:41:49.915Z,11.88
2023-03-22T08:44:21.667Z,11.99
2023-03-22T08:46:58.664Z,12.10
2023-03-22T08:49:29.215Z,12.18
2023-03-22T08:52:07.087Z,12.21
2023-03-22T08:54:39.121Z,12.22
2023-03-22T08:57:13.403Z,12.23
2023-03-22T08:59:46.571Z,12.22
2023-03-22T09:02:15.505Z,12.25
2023-03-22T09:04:51.788Z,12.37
2023-03-22T09:07:23.330Z,12.47
2023-03-22T09:09:58.243Z,12.72
2023-03-22T09:12:35.941Z,13.26
2023-03-22T09:15:15.621Z,13.67
2023-03-22T09:17:49.019Z,13.92
2023-03-22T09:20:18.571Z,13.97
2023-03-22T09:22:54.615Z,13.88
2023-03-22T09:25:28.044Z,13.75
2023-03-22T09:27:57.124Z,13.58
2023-03-22T09:30:28.764Z,13.45
2023-03-22T09:33:01.221Z,13.36
2023-03-22T09:35:33.066Z,13.32
2023-03-22T09:38:12.673Z,13.29
2023-03-22T09:41:03.101Z,13.30
2023-03-22T09:43:37.442Z,13.26
2023-03-22T09:46:16.868Z,13.22
2023-03-22T09:48:52.463Z,13.18
2023-03-22T09:51:39.669Z,13.18
2023-03-22T09:54:39.083Z,13.23
2023-03-22T09:57:12.720Z,13.40
2023-03-22T09:59:49.163Z,13.60
2023-03-22T10:02:47.526Z,13.73
2023-03-22T10:05:27.164Z,13.84
2023-03-22T10:08:33.053Z,13.82
2023-03-22T10:11:12.630Z,13.78
2023-03-22T10:13:48.508Z,13.82
2023-03-22T10:16:35.724Z,13.89
2023-03-22T10:19:15.017Z,13.92
2023-03-22T10:21:46.711Z,14.03
2023-03-22T10:24:22.133Z,14.07
2023-03-22T10:26:51.352Z,14.10
2023-03-22T10:29:25.268Z,14.08
2023-03-22T10:31:59.788Z,14.02
2023-03-22T10:34:35.099Z,14.07
2023-03-22T10:37:23.189Z,14.04
2023-03-22T10:40:10.045Z,13.96
2023-03-22T10:42:46.556Z,13.96
2023-03-22T10:45:24.390Z,13.88
2023-03-22T10:48:01.427Z,13.86
2023-03-22T10:50:59.745Z,13.84
2023-03-22T10:53:43.006Z,13.90
2023-03-22T10:56:20.530Z,13.97
2023-03-22T10:58:52.678Z,14.06
2023-03-22T11:01:30.625Z,14.13
2023-03-22T11:04:09.019Z,14.18
2023-03-22T11:06:54.823Z,14.23
2023-03-22T11:09:26.527Z,14.22
2023-03-22T11:12:02.729Z,14.17
2023-03-22T11:15:00.305Z,14.14
2023-03-22T11:17:35.526Z,14.11
2023-03-22T11:23:17.985Z,14.10
2023-03-22T11:25:50.156Z,14.12
2023-03-22T11:28:24.109Z,14.19
2023-03-22T11:31:04.954Z,14.32
2023-03-22T11:33:35.727Z,14.40
2023-03-22T11:36:07.148Z,14.51
2023-03-22T11:38:40.277Z,14.65
2023-03-22T11:41:10.537Z,14.80
2023-03-22T11:43:45.823Z,14.93
2023-03-22T11:46:16.558Z,14.97
2023-03-22T11:48:48.800Z,14.98
2023-03-22T11:51:29.590Z,15.01
2023-03-22T11:54:07.801Z,14.93
2023-03-22T11:56:39.524Z,14.83
2023-03-22T11:59:11.225Z,14.77
2023-03-22T12:01:44.534Z,14.69
2023-03-22T12:04:16.776Z,14.64
2023-03-22T12:06:45.653Z,14.58
2023-03-22T12:09:28.237Z,14.53
2023-03-22T12:12:00.520Z,14.45
2023-03-22T12:14:32.404Z,14.37
2023-03-22T12:17:09.186Z,14.32
2023-03-22T12:19:53.349Z,14.32
2023-03-22T12:22:27.637Z,14.33
2023-03-22T12:24:57.936Z,14.33
2023-03-22T12:27:34.494Z,14.31
2023-03-22T12:30:14.716Z,14.32
2023-03-22T12:32:48.223Z,14.26
2023-03-22T12:35:21.586Z,14.19
2023-03-22T12:37:53.025Z,14.11
2023-03-22T12:40:26.487Z,14.05
2023-03-22T12:43:09.402Z,13.90
2023-03-22T12:45:44.476Z,13.80
2023-03-22T12:48:28.050Z,13.78
2023-03-22T12:50:59.762Z,13.72
2023-03-22T12:53:35.764Z,13.62
2023-03-22T12:56:06.576Z,13.52
2023-03-22T12:58:35.369Z,13.37
2023-03-22T13:01:20.811Z,13.22
2023-03-22T13:03:55.106Z,13.10
2023-03-22T13:06:35.187Z,13.05
2023-03-22T13:09:19.463Z,12.99
2023-03-22T13:11:52.257Z,12.95
2023-03-22T13:15:01.219Z,12.90
2023-03-22T13:17:42.645Z,12.87
2023-03-22T13:21:26.051Z,12.82
2023-03-22T13:24:02.135Z,12.78
2023-03-22T13:26:36.497Z,12.72
2023-03-22T13:29:15.476Z,12.70
2023-03-22T13:31:46.323Z,12.70
2023-03-22T13:34:20.981Z,12.67
2023-03-22T13:36:57.151Z,12.65
2023-03-22T13:39:27.639Z,12.63
2023-03-22T13:42:19.807Z,12.59
2023-03-22T13:44:57.328Z,12.56
2023-03-22T13:47:39.300Z,12.51
2023-03-22T13:50:19.780Z,12.48
2023-03-22T13:53:05.502Z,12.44
2023-03-22T13:56:01.181Z,12.43
2023-03-22T14:00:09.563Z,12.38
2023-03-22T14:03:16.963Z,12.34
2023-03-22T14:05:49.965Z,12.29
2023-03-22T14:08:38.861Z,12.21
2023-03-22T14:11:23.821Z,12.16
2023-03-22T14:13:56.575Z,12.08
2023-03-22T14:16:38.627Z,12.05
2023-03-22T14:19:22.596Z,12.08
